Time;durP1;ratioP1;P1;durP2;ratioP2;P2;SDS_P1;SDS_P2;PMS_P1;PMS_P2;Temp;Humidity;BMP_temperature;BMP_pressure;BME280_temperature;BME280_humidity;BME280_pressure;Samples;Min_cycle;Max_cycle;Signal;HPM_P1;HPM_P2
2023/09/17 00:01:23;;;;;;;;;8.33;8.33;;;;;;;;5019172;28;45432;-74
2023/09/17 00:03:48;;;;;;;;;8.00;8.00;;;;;;;;5020253;28;45264;-74
2023/09/17 00:06:13;;;;;;;;;9.67;9.67;;;;;;;;5018906;28;47252;-74
2023/09/17 00:08:39;;;;;;;;;10.67;10.67;;;;;;;;5020025;28;45283;-74
2023/09/17 00:11:04;;;;;;;;;10.00;8.00;;;;;;;;5018859;28;45266;-74
2023/09/17 00:13:30;;;;;;;;;12.00;11.33;;;;;;;;5021943;28;45142;-74
2023/09/17 00:15:55;;;;;;;;;9.00;9.00;;;;;;;;5018819;28;46088;-74
2023/09/17 00:18:20;;;;;;;;;11.00;11.00;;;;;;;;5024523;28;45185;-74
2023/09/17 00:20:45;;;;;;;;;11.00;9.67;;;;;;;;5040268;28;45203;-74
2023/09/17 00:23:11;;;;;;;;;9.67;9.67;;;;;;;;5038816;28;46186;-74
2023/09/17 00:25:37;;;;;;;;;8.67;8.67;;;;;;;;5040150;28;45458;-74
2023/09/17 00:28:02;;;;;;;;;9.33;8.33;;;;;;;;5040201;28;45365;-74
2023/09/17 00:30:27;;;;;;;;;10.00;10.00;;;;;;;;5020760;28;45573;-74
2023/09/17 00:32:53;;;;;;;;;9.33;9.33;;;;;;;;5019604;28;45415;-74
2023/09/17 00:35:18;;;;;;;;;7.67;7.67;;;;;;;;5018136;28;47949;-73
2023/09/17 00:37:43;;;;;;;;;10.00;9.00;;;;;;;;5020347;28;45379;-74
2023/09/17 00:40:10;;;;;;;;;11.33;10.33;;;;;;;;5020160;28;45323;-74
2023/09/17 00:42:35;;;;;;;;;8.00;8.00;;;;;;;;5035602;28;46944;-74
2023/09/17 00:45:00;;;;;;;;;8.67;8.33;;;;;;;;5038667;28;47567;-74
2023/09/17 00:47:25;;;;;;;;;8.00;8.00;;;;;;;;5022251;28;46137;-74
2023/09/17 00:49:51;;;;;;;;;8.67;8.67;;;;;;;;5023349;28;45314;-74
2023/09/17 00:52:19;;;;;;;;;7.00;7.00;;;;;;;;5023629;28;45350;-74
2023/09/17 00:54:45;;;;;;;;;9.33;8.00;;;;;;;;5038512;28;47713;-73
2023/09/17 00:57:11;;;;;;;;;9.33;9.33;;;;;;;;5022992;28;45293;-74
2023/09/17 00:59:37;;;;;;;;;7.33;7.33;;;;;;;;5023234;28;45274;-74
2023/09/17 01:02:03;;;;;;;;;7.67;6.33;;;;;;;;5022711;28;45415;-74
2023/09/17 01:04:29;;;;;;;;;5.67;5.67;;;;;;;;5022739;28;45333;-74
2023/09/17 01:06:55;;;;;;;;;7.33;7.33;;;;;;;;5023354;28;45417;-74
2023/09/17 01:09:21;;;;;;;;;8.33;8.33;;;;;;;;5023424;28;45283;-74
2023/09/17 01:11:46;;;;;;;;;9.67;8.33;;;;;;;;5023438;28;45309;-74
2023/09/17 01:14:14;;;;;;;;;8.00;8.00;;;;;;;;5038519;28;47159;-74
2023/09/17 01:16:41;;;;;;;;;9.00;8.67;;;;;;;;5022371;28;45258;-73
2023/09/17 01:19:08;;;;;;;;;8.00;8.00;;;;;;;;5022409;28;45339;-74
2023/09/17 01:21:38;;;;;;;;;11.00;11.00;;;;;;;;5038104;28;46079;-74
2023/09/17 01:24:26;;;;;;;;;7.67;7.67;;;;;;;;5022921;28;45389;-73
2023/09/17 01:27:00;;;;;;;;;10.00;9.00;;;;;;;;5022293;28;45202;-74
2023/09/17 01:29:26;;;;;;;;;9.75;9.75;;;;;;;;5043915;28;45316;-74
2023/09/17 01:31:52;;;;;;;;;9.67;8.33;;;;;;;;5022091;28;45272;-74
2023/09/17 01:34:17;;;;;;;;;9.00;9.00;;;;;;;;5021022;28;47429;-74
2023/09/17 01:36:43;;;;;;;;;9.00;9.00;;;;;;;;5022511;28;45295;-74
2023/09/17 01:39:12;;;;;;;;;10.67;8.00;;;;;;;;5022416;28;45269;-74
2023/09/17 01:41:38;;;;;;;;;8.33;8.33;;;;;;;;5022384;28;45246;-74
2023/09/17 01:44:06;;;;;;;;;8.00;8.00;;;;;;;;5022255;28;45403;-74
2023/09/17 01:46:31;;;;;;;;;8.33;8.33;;;;;;;;5022244;28;45319;-74
2023/09/17 01:48:57;;;;;;;;;6.00;6.00;;;;;;;;5020622;28;45346;-74
2023/09/17 01:51:22;;;;;;;;;9.00;9.00;;;;;;;;5020461;28;46018;-74
2023/09/17 01:53:48;;;;;;;;;7.67;7.67;;;;;;;;5021849;28;45292;-74
2023/09/17 01:56:13;;;;;;;;;6.67;6.67;;;;;;;;5020807;28;45503;-74
2023/09/17 01:58:38;;;;;;;;;6.33;6.33;;;;;;;;5021736;28;45467;-74
2023/09/17 02:01:04;;;;;;;;;7.00;7.00;;;;;;;;5053690;28;46862;-74
2023/09/17 02:03:30;;;;;;;;;8.00;8.00;;;;;;;;5021530;28;45492;-74
2023/09/17 02:05:55;;;;;;;;;7.33;7.33;;;;;;;;5021817;28;45356;-74
2023/09/17 02:08:21;;;;;;;;;5.67;5.67;;;;;;;;5025727;28;45347;-73
2023/09/17 02:10:46;;;;;;;;;7.33;7.33;;;;;;;;5040364;28;46033;-74
2023/09/17 02:13:11;;;;;;;;;9.00;9.00;;;;;;;;5041440;28;45360;-74
2023/09/17 02:15:36;;;;;;;;;10.67;9.33;;;;;;;;5041697;28;45303;-74
2023/09/17 02:18:03;;;;;;;;;6.67;6.00;;;;;;;;5040459;28;45308;-74
2023/09/17 02:20:28;;;;;;;;;7.67;7.00;;;;;;;;5040938;28;45223;-74
2023/09/17 02:22:54;;;;;;;;;9.00;9.00;;;;;;;;5041851;28;45296;-74
2023/09/17 02:25:19;;;;;;;;;9.33;9.00;;;;;;;;5041274;28;45205;-74
2023/09/17 02:27:46;;;;;;;;;9.00;8.00;;;;;;;;5041873;28;45288;-74
2023/09/17 02:30:11;;;;;;;;;7.33;7.33;;;;;;;;5025348;28;45465;-73
2023/09/17 02:32:39;;;;;;;;;9.00;9.00;;;;;;;;5021735;28;45284;-74
2023/09/17 02:35:08;;;;;;;;;7.33;7.33;;;;;;;;5021463;28;45315;-74
2023/09/17 02:37:33;;;;;;;;;9.67;8.00;;;;;;;;5021678;28;45454;-74
2023/09/17 02:39:58;;;;;;;;;7.67;7.33;;;;;;;;5037060;28;45950;-73
2023/09/17 02:42:24;;;;;;;;;10.67;10.67;;;;;;;;5021743;28;45556;-74
2023/09/17 02:44:50;;;;;;;;;10.67;9.33;;;;;;;;5036836;28;45615;-74
2023/09/17 02:47:15;;;;;;;;;8.00;8.00;;;;;;;;5021470;28;45377;-73
2023/09/17 02:49:40;;;;;;;;;8.00;8.00;;;;;;;;5021516;28;45371;-74
2023/09/17 02:52:06;;;;;;;;;6.67;5.33;;;;;;;;5036219;28;47397;-74
2023/09/17 02:54:31;;;;;;;;;8.00;8.00;;;;;;;;5036164;28;45343;-73
2023/09/17 02:56:56;;;;;;;;;9.00;8.33;;;;;;;;5021421;28;45324;-74
2023/09/17 02:59:22;;;;;;;;;7.00;7.00;;;;;;;;5020766;28;45456;-74
2023/09/17 03:01:47;;;;;;;;;9.67;9.00;;;;;;;;5020867;28;45321;-74
2023/09/17 03:04:12;;;;;;;;;8.67;8.67;;;;;;;;5020934;28;45322;-74
2023/09/17 03:06:37;;;;;;;;;10.00;8.00;;;;;;;;5020200;28;45400;-74
2023/09/17 03:09:07;;;;;;;;;10.67;9.33;;;;;;;;5020934;28;45392;-74
2023/09/17 03:11:32;;;;;;;;;8.00;8.00;;;;;;;;5020605;28;46075;-73
2023/09/17 03:13:57;;;;;;;;;7.00;6.00;;;;;;;;5036213;28;45236;-74
2023/09/17 03:16:23;;;;;;;;;6.67;6.67;;;;;;;;5021184;28;45555;-73
2023/09/17 03:18:48;;;;;;;;;7.67;7.67;;;;;;;;5020616;28;45445;-73
2023/09/17 03:21:14;;;;;;;;;8.00;8.00;;;;;;;;5020614;28;45593;-73
2023/09/17 03:23:39;;;;;;;;;7.67;7.67;;;;;;;;5020943;28;45163;-74
2023/09/17 03:26:05;;;;;;;;;10.00;8.33;;;;;;;;5020730;28;45340;-74
2023/09/17 03:28:30;;;;;;;;;9.00;7.33;;;;;;;;5020442;28;45611;-74
2023/09/17 03:30:56;;;;;;;;;7.33;7.33;;;;;;;;5020481;28;45433;-74
2023/09/17 03:33:21;;;;;;;;;7.00;7.00;;;;;;;;5020332;28;45251;-73
2023/09/17 03:35:47;;;;;;;;;9.33;9.33;;;;;;;;5020670;28;45253;-74
2023/09/17 03:38:12;;;;;;;;;7.67;6.00;;;;;;;;5035912;28;46350;-74
2023/09/17 03:40:38;;;;;;;;;6.67;6.67;;;;;;;;5020381;28;45285;-74
2023/09/17 03:43:03;;;;;;;;;6.67;6.00;;;;;;;;5020290;28;45406;-74
2023/09/17 03:45:28;;;;;;;;;7.00;7.00;;;;;;;;5035661;28;45237;-74
2023/09/17 03:47:53;;;;;;;;;7.67;7.67;;;;;;;;5020046;28;45383;-74
2023/09/17 03:50:19;;;;;;;;;5.33;5.33;;;;;;;;5019727;28;45359;-74
2023/09/17 03:52:46;;;;;;;;;8.00;7.00;;;;;;;;5035229;28;45877;-74
2023/09/17 03:55:12;;;;;;;;;6.00;5.67;;;;;;;;5020323;28;45305;-74
2023/09/17 03:57:38;;;;;;;;;6.00;6.00;;;;;;;;5031624;28;45417;-74
2023/09/17 04:00:07;;;;;;;;;6.00;5.67;;;;;;;;5039822;28;45981;-73
2023/09/17 04:02:39;;;;;;;;;7.00;6.00;;;;;;;;5039717;28;45342;-74
2023/09/17 04:05:09;;;;;;;;;6.33;6.33;;;;;;;;5040021;28;45282;-74
2023/09/17 04:07:35;;;;;;;;;6.33;6.33;;;;;;;;5039809;28;45458;-73
2023/09/17 04:10:02;;;;;;;;;6.33;6.33;;;;;;;;5038239;28;48450;-73
2023/09/17 04:12:27;;;;;;;;;5.67;5.67;;;;;;;;5039805;28;45343;-74
2023/09/17 04:14:52;;;;;;;;;7.33;7.33;;;;;;;;5039857;28;45253;-74
2023/09/17 04:17:18;;;;;;;;;6.33;6.00;;;;;;;;5037436;28;46352;-74
2023/09/17 04:19:43;;;;;;;;;7.00;6.67;;;;;;;;5038976;28;45466;-74
2023/09/17 04:22:08;;;;;;;;;10.00;8.67;;;;;;;;5038135;28;45293;-74
2023/09/17 04:24:33;;;;;;;;;6.33;6.33;;;;;;;;5039731;28;45355;-74
2023/09/17 04:26:59;;;;;;;;;5.00;5.00;;;;;;;;5039151;28;45520;-74
2023/09/17 04:29:24;;;;;;;;;7.33;7.33;;;;;;;;5030139;28;46112;-74
2023/09/17 04:31:51;;;;;;;;;8.33;7.67;;;;;;;;5019576;28;45291;-74
2023/09/17 04:34:17;;;;;;;;;8.00;7.33;;;;;;;;5029517;28;45343;-74
2023/09/17 04:36:43;;;;;;;;;7.00;6.67;;;;;;;;5038538;28;45347;-74
2023/09/17 04:39:10;;;;;;;;;7.67;6.33;;;;;;;;5037569;28;48023;-73
2023/09/17 04:41:35;;;;;;;;;8.33;6.33;;;;;;;;5038859;28;45408;-73
2023/09/17 04:44:03;;;;;;;;;7.00;7.00;;;;;;;;5039780;28;45285;-74
2023/09/17 04:46:28;;;;;;;;;9.00;7.67;;;;;;;;5028030;28;45317;-74
2023/09/17 04:48:53;;;;;;;;;8.67;8.67;;;;;;;;5027602;28;45283;-73
2023/09/17 04:51:20;;;;;;;;;8.67;8.67;;;;;;;;5039130;28;45335;-74
2023/09/17 04:53:46;;;;;;;;;7.33;7.00;;;;;;;;5039256;28;45324;-73
2023/09/17 04:56:11;;;;;;;;;7.00;6.00;;;;;;;;5039241;28;45237;-74
2023/09/17 04:58:36;;;;;;;;;8.00;8.00;;;;;;;;5038892;28;45835;-74
2023/09/17 05:01:02;;;;;;;;;5.33;5.00;;;;;;;;5039038;28;45257;-74
2023/09/17 05:03:27;;;;;;;;;5.33;5.33;;;;;;;;5037649;28;45285;-73
2023/09/17 05:05:52;;;;;;;;;9.33;7.67;;;;;;;;5038892;28;45544;-74
2023/09/17 05:08:18;;;;;;;;;6.67;6.67;;;;;;;;5038831;28;45443;-74
2023/09/17 05:10:43;;;;;;;;;8.00;7.00;;;;;;;;5037551;28;45388;-73
2023/09/17 05:13:08;;;;;;;;;8.00;6.67;;;;;;;;5039144;28;45378;-74
2023/09/17 05:15:34;;;;;;;;;5.67;5.67;;;;;;;;5038782;28;45512;-74
2023/09/17 05:17:59;;;;;;;;;4.00;4.00;;;;;;;;5037258;28;48190;-74
2023/09/17 05:20:25;;;;;;;;;7.67;7.00;;;;;;;;5037105;28;45434;-73
2023/09/17 05:22:50;;;;;;;;;5.00;5.00;;;;;;;;5038974;28;45237;-74
2023/09/17 05:25:15;;;;;;;;;6.00;6.00;;;;;;;;5038612;28;45295;-74
2023/09/17 05:27:40;;;;;;;;;7.33;7.33;;;;;;;;5037053;28;47536;-74
2023/09/17 05:30:06;;;;;;;;;6.00;6.00;;;;;;;;5025798;28;45232;-74
2023/09/17 05:32:32;;;;;;;;;7.00;7.00;;;;;;;;5022364;28;45277;-74
2023/09/17 05:34:58;;;;;;;;;6.00;6.00;;;;;;;;5021931;28;45523;-74
2023/09/17 05:37:23;;;;;;;;;7.00;7.00;;;;;;;;5022082;28;45220;-74
2023/09/17 05:39:48;;;;;;;;;7.33;7.33;;;;;;;;5021988;28;45448;-74
2023/09/17 05:42:13;;;;;;;;;5.00;5.00;;;;;;;;5037461;28;45303;-75
2023/09/17 05:44:39;;;;;;;;;6.67;6.67;;;;;;;;5021913;28;45488;-74
2023/09/17 05:47:04;;;;;;;;;5.67;5.67;;;;;;;;5022005;28;45281;-74
2023/09/17 05:49:29;;;;;;;;;6.67;6.67;;;;;;;;5037136;28;45579;-73
2023/09/17 05:51:55;;;;;;;;;8.00;8.00;;;;;;;;5021968;28;45347;-74
2023/09/17 05:54:21;;;;;;;;;8.00;7.00;;;;;;;;5036898;28;46256;-74
2023/09/17 05:56:46;;;;;;;;;6.33;6.33;;;;;;;;5021836;28;45991;-73
2023/09/17 05:59:11;;;;;;;;;6.33;6.00;;;;;;;;5036838;28;45315;-73
2023/09/17 06:01:36;;;;;;;;;6.00;6.00;;;;;;;;5020460;28;45441;-74
2023/09/17 06:04:02;;;;;;;;;7.33;7.33;;;;;;;;5040595;28;46302;-74
2023/09/17 06:06:27;;;;;;;;;5.33;5.33;;;;;;;;5040362;28;47558;-74
2023/09/17 06:08:53;;;;;;;;;7.00;5.67;;;;;;;;5041641;28;45410;-74
2023/09/17 06:11:18;;;;;;;;;5.00;5.00;;;;;;;;5057034;28;45395;-74
2023/09/17 06:13:44;;;;;;;;;7.00;7.00;;;;;;;;5041536;28;45530;-74
2023/09/17 06:16:09;;;;;;;;;6.00;6.00;;;;;;;;5041472;28;46507;-74
2023/09/17 06:18:34;;;;;;;;;6.33;5.00;;;;;;;;5041383;28;45314;-74
2023/09/17 06:21:00;;;;;;;;;8.00;4.67;;;;;;;;5056674;28;45327;-74
2023/09/17 06:23:25;;;;;;;;;3.67;3.67;;;;;;;;5039541;28;46183;-74
2023/09/17 06:25:50;;;;;;;;;7.33;5.67;;;;;;;;5040626;28;46344;-74
2023/09/17 06:28:15;;;;;;;;;5.00;4.67;;;;;;;;5055732;28;45277;-74
2023/09/17 06:30:41;;;;;;;;;6.67;6.67;;;;;;;;5021700;28;45244;-75
2023/09/17 06:33:06;;;;;;;;;9.00;9.00;;;;;;;;5021246;28;45326;-74
2023/09/17 06:35:31;;;;;;;;;5.00;5.00;;;;;;;;5020952;28;46059;-74
2023/09/17 06:37:57;;;;;;;;;6.67;6.00;;;;;;;;5021525;28;45311;-75
2023/09/17 06:40:22;;;;;;;;;5.00;5.00;;;;;;;;5020291;28;45292;-73
2023/09/17 06:42:48;;;;;;;;;4.67;4.67;;;;;;;;5021077;28;45299;-74
2023/09/17 06:45:13;;;;;;;;;4.67;4.67;;;;;;;;5024760;28;45316;-74
2023/09/17 06:47:38;;;;;;;;;5.33;5.33;;;;;;;;5040846;28;45792;-74
2023/09/17 06:50:04;;;;;;;;;4.00;4.00;;;;;;;;5030354;28;45225;-74
2023/09/17 06:52:29;;;;;;;;;6.75;5.75;;;;;;;;5022857;28;45421;-74
2023/09/17 06:54:54;;;;;;;;;5.67;5.00;;;;;;;;5020870;28;45579;-75
2023/09/17 06:57:19;;;;;;;;;5.00;5.00;;;;;;;;5020755;28;45350;-75
2023/09/17 06:59:46;;;;;;;;;6.33;6.00;;;;;;;;5020946;28;45432;-75
2023/09/17 07:02:11;;;;;;;;;6.33;6.33;;;;;;;;5019474;28;46167;-74
2023/09/17 07:04:36;;;;;;;;;7.00;6.00;;;;;;;;5035480;28;47212;-75
2023/09/17 07:07:02;;;;;;;;;6.50;5.50;;;;;;;;5019541;28;45329;-75
2023/09/17 07:09:31;;;;;;;;;5.00;5.00;;;;;;;;5036757;28;45458;-75
2023/09/17 07:11:56;;;;;;;;;5.00;4.00;;;;;;;;5035975;28;46607;-75
2023/09/17 07:14:21;;;;;;;;;7.33;5.33;;;;;;;;5020536;28;46260;-74
2023/09/17 07:16:47;;;;;;;;;5.25;5.25;;;;;;;;5036063;28;45275;-74
2023/09/17 07:19:12;;;;;;;;;4.67;4.67;;;;;;;;5021428;28;45331;-73
2023/09/17 07:21:37;;;;;;;;;6.25;5.50;;;;;;;;5023341;28;45354;-74
2023/09/17 07:24:03;;;;;;;;;5.33;5.33;;;;;;;;5019829;28;47000;-74
2023/09/17 07:26:28;;;;;;;;;6.00;6.00;;;;;;;;5026731;28;45262;-74
2023/09/17 07:28:54;;;;;;;;;5.33;5.00;;;;;;;;5032771;28;45701;-74
2023/09/17 07:31:19;;;;;;;;;7.00;6.00;;;;;;;;5060249;28;46317;-74
2023/09/17 07:33:44;;;;;;;;;5.67;5.67;;;;;;;;5059622;28;47214;-74
2023/09/17 07:36:10;;;;;;;;;5.00;5.00;;;;;;;;5044077;28;45127;-74
2023/09/17 07:38:35;;;;;;;;;4.00;4.00;;;;;;;;5044974;28;45330;-74
2023/09/17 07:41:00;;;;;;;;;7.00;6.33;;;;;;;;5042738;28;45314;-74
2023/09/17 07:43:26;;;;;;;;;6.00;6.00;;;;;;;;5041929;28;46080;-75
2023/09/17 07:45:51;;;;;;;;;6.00;6.00;;;;;;;;5044487;28;45384;-74
2023/09/17 07:48:16;;;;;;;;;6.33;6.33;;;;;;;;5045956;28;45287;-75
2023/09/17 07:50:42;;;;;;;;;5.33;4.67;;;;;;;;5062350;28;47026;-74
2023/09/17 07:53:10;;;;;;;;;3.33;3.33;;;;;;;;5043425;28;45227;-74
2023/09/17 07:55:35;;;;;;;;;6.00;6.00;;;;;;;;5043000;28;45353;-74
2023/09/17 07:58:00;;;;;;;;;7.67;7.67;;;;;;;;5040139;28;45496;-74
2023/09/17 08:00:25;;;;;;;;;9.00;9.00;;;;;;;;5041766;28;45514;-74
2023/09/17 08:02:51;;;;;;;;;8.33;6.67;;;;;;;;5040465;28;45512;-74
2023/09/17 08:05:17;;;;;;;;;3.33;3.33;;;;;;;;5049218;28;45373;-76
2023/09/17 08:07:42;;;;;;;;;5.33;5.00;;;;;;;;5045258;28;45446;-74
2023/09/17 08:10:08;;;;;;;;;7.00;7.00;;;;;;;;5044600;28;47444;-75
2023/09/17 08:12:33;;;;;;;;;6.50;5.25;;;;;;;;5041706;28;46472;-74
2023/09/17 08:14:58;;;;;;;;;4.75;4.75;;;;;;;;5041834;28;45203;-75
2023/09/17 08:17:24;;;;;;;;;8.25;7.75;;;;;;;;5039784;28;45583;-74
2023/09/17 08:19:49;;;;;;;;;7.00;7.00;;;;;;;;5038411;28;45509;-75
2023/09/17 08:22:15;;;;;;;;;6.00;6.00;;;;;;;;5038635;28;47326;-75
2023/09/17 08:24:40;;;;;;;;;6.00;5.75;;;;;;;;5038069;28;45892;-75
2023/09/17 08:27:05;;;;;;;;;7.67;7.67;;;;;;;;5040337;28;45338;-75
2023/09/17 08:29:30;;;;;;;;;11.67;10.33;;;;;;;;5040761;28;45300;-75
2023/09/17 08:31:56;;;;;;;;;5.75;5.75;;;;;;;;5040706;28;45613;-76
2023/09/17 08:34:21;;;;;;;;;7.33;7.33;;;;;;;;5039212;28;45188;-73
2023/09/17 08:36:46;;;;;;;;;8.00;7.00;;;;;;;;5039380;28;45346;-74
2023/09/17 08:39:11;;;;;;;;;6.50;5.50;;;;;;;;5039476;28;45575;-74
2023/09/17 08:41:38;;;;;;;;;7.50;6.75;;;;;;;;5039643;28;45244;-76
2023/09/17 08:44:04;;;;;;;;;8.00;6.25;;;;;;;;5040438;28;45431;-75
2023/09/17 08:46:30;;;;;;;;;8.00;7.00;;;;;;;;5039644;28;45319;-74
2023/09/17 08:48:55;;;;;;;;;5.75;5.25;;;;;;;;5037721;28;46235;-76
2023/09/17 08:51:23;;;;;;;;;6.33;6.33;;;;;;;;5039097;28;45437;-75
2023/09/17 08:53:53;;;;;;;;;7.00;6.75;;;;;;;;5038106;28;45983;-75
2023/09/17 08:56:19;;;;;;;;;6.75;6.00;;;;;;;;5038066;28;45356;-74
2023/09/17 08:58:57;;;;;;;;;8.25;8.25;;;;;;;;5038913;28;45398;-73
2023/09/17 09:01:23;;;;;;;;;6.50;6.50;;;;;;;;5039160;28;46014;-72
2023/09/17 09:03:49;;;;;;;;;6.25;5.50;;;;;;;;5039805;28;45761;-74
2023/09/17 09:06:15;;;;;;;;;7.25;6.50;;;;;;;;5043958;28;45338;-74
2023/09/17 09:08:42;;;;;;;;;7.25;7.25;;;;;;;;5041848;28;46516;-75
2023/09/17 09:11:08;;;;;;;;;8.00;8.00;;;;;;;;5042477;28;45447;-72
2023/09/17 09:13:33;;;;;;;;;5.50;5.50;;;;;;;;5043013;28;45335;-75
2023/09/17 09:16:00;;;;;;;;;8.00;8.00;;;;;;;;5043008;28;45342;-76
2023/09/17 09:18:25;;;;;;;;;7.00;6.75;;;;;;;;5042185;28;45369;-76
2023/09/17 09:20:50;;;;;;;;;7.50;7.50;;;;;;;;5042500;28;46164;-74
2023/09/17 09:23:16;;;;;;;;;9.50;7.25;;;;;;;;5041269;28;45356;-76
2023/09/17 09:25:41;;;;;;;;;8.50;8.50;;;;;;;;5046392;28;45321;-76
2023/09/17 09:28:07;;;;;;;;;7.50;6.25;;;;;;;;5050471;28;45358;-79
2023/09/17 09:30:32;;;;;;;;;7.75;7.75;;;;;;;;5033776;28;48121;-77
2023/09/17 09:32:57;;;;;;;;;7.75;7.75;;;;;;;;5048322;28;46008;-76
2023/09/17 09:35:23;;;;;;;;;6.75;6.75;;;;;;;;5053396;28;45354;-76
2023/09/17 09:37:50;;;;;;;;;7.25;7.25;;;;;;;;5045897;28;45279;-75
2023/09/17 09:40:16;;;;;;;;;8.75;8.75;;;;;;;;5047906;28;45266;-76
2023/09/17 09:42:42;;;;;;;;;8.50;7.00;;;;;;;;5046572;28;45530;-79
2023/09/17 09:45:13;;;;;;;;;8.50;7.00;;;;;;;;5046081;28;45275;-76
2023/09/17 09:47:38;;;;;;;;;9.50;7.50;;;;;;;;5041692;28;45514;-76
2023/09/17 09:50:03;;;;;;;;;10.67;10.00;;;;;;;;5041334;28;46585;-76
2023/09/17 09:52:28;;;;;;;;;13.67;13.67;;;;;;;;5041094;28;45587;-76
2023/09/17 09:54:54;;;;;;;;;9.00;7.50;;;;;;;;5042546;28;45388;-75
2023/09/17 09:57:19;;;;;;;;;8.25;7.50;;;;;;;;5040420;28;45517;-73
2023/09/17 09:59:46;;;;;;;;;9.00;9.00;;;;;;;;5041357;28;46253;-73
2023/09/17 10:02:12;;;;;;;;;9.25;8.75;;;;;;;;5044781;28;45267;-77
2023/09/17 10:04:37;;;;;;;;;8.25;7.75;;;;;;;;5039733;28;45290;-74
2023/09/17 10:07:04;;;;;;;;;7.50;7.00;;;;;;;;5038452;28;45514;-76
2023/09/17 10:09:30;;;;;;;;;8.75;8.00;;;;;;;;5029920;28;47164;-75
2023/09/17 10:11:55;;;;;;;;;7.75;7.75;;;;;;;;5030221;28;44685;-77
2023/09/17 10:14:24;;;;;;;;;8.25;8.25;;;;;;;;5025418;28;45331;-78
2023/09/17 10:16:49;;;;;;;;;8.00;8.00;;;;;;;;5028687;28;45300;-79
2023/09/17 10:19:19;;;;;;;;;8.00;8.00;;;;;;;;5030565;28;46436;-76
2023/09/17 10:21:45;;;;;;;;;8.00;8.00;;;;;;;;5031074;28;45343;-76
2023/09/17 10:24:11;;;;;;;;;6.75;6.00;;;;;;;;5033992;28;45275;-76
2023/09/17 10:26:42;;;;;;;;;7.00;7.00;;;;;;;;5029697;28;44810;-78
2023/09/17 10:29:08;;;;;;;;;9.75;9.75;;;;;;;;5011835;28;47458;-80
2023/09/17 10:31:35;;;;;;;;;6.50;5.75;;;;;;;;5047944;28;45310;-75
2023/09/17 10:34:02;;;;;;;;;9.25;7.75;;;;;;;;5046905;28;45396;-78
2023/09/17 10:36:28;;;;;;;;;7.75;7.00;;;;;;;;5053074;28;45515;-78
2023/09/17 10:38:55;;;;;;;;;8.25;7.75;;;;;;;;5048520;28;47235;-78
2023/09/17 10:41:22;;;;;;;;;7.25;7.25;;;;;;;;5051702;28;45177;-75
2023/09/17 10:43:48;;;;;;;;;7.50;7.50;;;;;;;;5027951;28;45400;-74
2023/09/17 10:46:14;;;;;;;;;9.25;9.00;;;;;;;;5036565;28;45450;-76
2023/09/17 10:48:41;;;;;;;;;7.25;7.25;;;;;;;;5043474;28;46485;-78
2023/09/17 10:51:06;;;;;;;;;7.25;7.25;;;;;;;;5046556;28;45348;-80
2023/09/17 10:53:31;;;;;;;;;8.00;8.00;;;;;;;;5049515;28;45373;-77
2023/09/17 10:56:03;;;;;;;;;7.00;7.00;;;;;;;;5044840;28;46164;-75
2023/09/17 10:58:35;;;;;;;;;8.00;8.00;;;;;;;;5047728;28;45893;-76
2023/09/17 11:01:01;;;;;;;;;7.00;7.00;;;;;;;;5049385;28;46069;-75
2023/09/17 11:03:29;;;;;;;;;5.50;5.50;;;;;;;;5051895;28;44898;-75
2023/09/17 11:05:55;;;;;;;;;6.75;6.75;;;;;;;;5040983;28;45469;-74
2023/09/17 11:08:21;;;;;;;;;5.25;5.25;;;;;;;;5040310;28;46197;-73
2023/09/17 11:10:47;;;;;;;;;6.75;6.75;;;;;;;;5041839;28;45331;-74
2023/09/17 11:13:13;;;;;;;;;8.00;8.00;;;;;;;;5040826;28;45367;-74
2023/09/17 11:15:39;;;;;;;;;8.75;8.75;;;;;;;;5040924;28;45426;-74
2023/09/17 11:18:04;;;;;;;;;8.75;8.75;;;;;;;;5042339;28;46226;-75
2023/09/17 11:20:29;;;;;;;;;8.75;7.75;;;;;;;;5039402;28;45355;-74
2023/09/17 11:22:56;;;;;;;;;9.25;9.00;;;;;;;;5044644;28;45314;-75
2023/09/17 11:25:37;;;;;;;;;10.50;10.50;;;;;;;;5042263;28;45331;-75
2023/09/17 11:28:10;;;;;;;;;7.75;7.75;;;;;;;;5041197;28;47089;-74
2023/09/17 11:30:54;;;;;;;;;9.50;9.25;;;;;;;;5037194;28;45499;-75
2023/09/17 11:33:22;;;;;;;;;5.75;5.75;;;;;;;;5042931;28;45386;-74
2023/09/17 11:35:47;;;;;;;;;9.75;8.25;;;;;;;;5042659;28;45563;-74
2023/09/17 11:38:13;;;;;;;;;9.75;9.75;;;;;;;;5040184;28;45670;-75
2023/09/17 11:40:39;;;;;;;;;8.50;8.50;;;;;;;;5039716;28;45477;-74
2023/09/17 11:43:04;;;;;;;;;7.00;7.00;;;;;;;;5038878;28;45362;-74
2023/09/17 11:45:29;;;;;;;;;7.00;7.00;;;;;;;;5037514;28;45943;-74
2023/09/17 11:47:55;;;;;;;;;8.00;8.00;;;;;;;;5037606;28;48409;-75
2023/09/17 11:50:20;;;;;;;;;7.75;7.75;;;;;;;;5039075;28;45331;-75
2023/09/17 11:53:01;;;;;;;;;11.00;9.50;;;;;;;;5039267;28;46398;-74
2023/09/17 11:55:27;;;;;;;;;7.25;6.75;;;;;;;;5038727;28;45302;-74
2023/09/17 11:57:52;;;;;;;;;8.50;6.50;;;;;;;;5039292;28;46175;-75
2023/09/17 12:00:27;;;;;;;;;10.00;10.00;;;;;;;;5038521;28;45358;-74
2023/09/17 12:02:53;;;;;;;;;7.25;7.25;;;;;;;;5038229;28;45356;-74
2023/09/17 12:05:21;;;;;;;;;8.75;8.75;;;;;;;;5042988;28;45614;-74
2023/09/17 12:07:47;;;;;;;;;7.50;6.25;;;;;;;;5044273;28;47497;-75
2023/09/17 12:10:14;;;;;;;;;8.00;8.00;;;;;;;;5047971;28;45422;-74
2023/09/17 12:12:39;;;;;;;;;7.25;7.25;;;;;;;;5044083;28;45426;-75
2023/09/17 12:15:05;;;;;;;;;6.75;6.75;;;;;;;;5027697;28;45334;-76
2023/09/17 12:17:30;;;;;;;;;9.00;7.50;;;;;;;;5027640;28;45535;-74
2023/09/17 12:20:10;;;;;;;;;6.25;6.00;;;;;;;;5022689;28;45377;-75
2023/09/17 12:22:35;;;;;;;;;8.75;8.75;;;;;;;;5025963;28;45204;-74
2023/09/17 12:25:08;;;;;;;;;8.00;8.00;;;;;;;;5034299;28;46369;-74
2023/09/17 12:27:44;;;;;;;;;8.50;8.50;;;;;;;;5041265;28;45267;-74
2023/09/17 12:30:11;;;;;;;;;9.75;7.25;;;;;;;;5025834;28;45396;-74
2023/09/17 12:32:36;;;;;;;;;8.50;7.25;;;;;;;;5023274;28;45288;-74
2023/09/17 12:35:03;;;;;;;;;7.00;7.00;;;;;;;;5022669;28;45445;-74
2023/09/17 12:37:28;;;;;;;;;7.00;7.00;;;;;;;;5023088;28;48105;-74
2023/09/17 12:39:54;;;;;;;;;9.00;8.00;;;;;;;;5026251;28;45370;-75
2023/09/17 12:42:21;;;;;;;;;6.00;6.00;;;;;;;;5024088;28;45364;-74
2023/09/17 12:44:46;;;;;;;;;8.00;8.00;;;;;;;;5023683;28;45335;-74
2023/09/17 12:47:11;;;;;;;;;8.00;7.00;;;;;;;;5023196;28;48134;-74
2023/09/17 12:49:37;;;;;;;;;7.50;7.25;;;;;;;;5026099;28;45316;-74
2023/09/17 12:52:02;;;;;;;;;5.25;5.25;;;;;;;;5022828;28;45285;-74
2023/09/17 12:54:27;;;;;;;;;7.25;6.50;;;;;;;;5023908;28;45284;-74
2023/09/17 12:56:55;;;;;;;;;8.00;8.00;;;;;;;;5027652;28;47569;-75
2023/09/17 12:59:46;;;;;;;;;7.25;6.75;;;;;;;;5028207;28;45218;-75
2023/09/17 13:02:13;;;;;;;;;7.75;6.75;;;;;;;;5028651;28;45246;-74
2023/09/17 13:04:42;;;;;;;;;7.25;7.25;;;;;;;;5029935;28;47260;-74
2023/09/17 13:07:14;;;;;;;;;6.50;6.50;;;;;;;;5027078;28;45377;-74
2023/09/17 13:09:39;;;;;;;;;6.50;6.50;;;;;;;;5029957;28;45302;-74
2023/09/17 13:12:05;;;;;;;;;7.00;5.75;;;;;;;;5031830;28;45175;-74
2023/09/17 13:14:31;;;;;;;;;7.25;7.25;;;;;;;;5032151;28;45311;-74
2023/09/17 13:16:56;;;;;;;;;7.50;7.00;;;;;;;;5027891;28;46343;-74
2023/09/17 13:19:21;;;;;;;;;6.00;6.00;;;;;;;;5029049;28;45149;-75
2023/09/17 13:21:47;;;;;;;;;7.00;7.00;;;;;;;;5027383;28;45322;-75
2023/09/17 13:24:12;;;;;;;;;9.50;8.75;;;;;;;;5029151;28;45425;-75
2023/09/17 13:26:37;;;;;;;;;6.25;6.25;;;;;;;;5025144;28;47216;-75
2023/09/17 13:29:03;;;;;;;;;7.75;7.75;;;;;;;;5024538;28;45396;-74
2023/09/17 13:31:28;;;;;;;;;7.25;7.25;;;;;;;;5025566;28;45342;-75
2023/09/17 13:33:55;;;;;;;;;9.00;8.00;;;;;;;;5040090;28;46365;-74
2023/09/17 13:36:20;;;;;;;;;6.25;6.00;;;;;;;;5022540;28;46375;-75
2023/09/17 13:38:47;;;;;;;;;5.50;5.50;;;;;;;;5024333;28;45347;-76
2023/09/17 13:41:17;;;;;;;;;6.00;6.00;;;;;;;;5048241;28;45300;-75
2023/09/17 13:43:42;;;;;;;;;6.75;6.75;;;;;;;;5047789;28;45351;-75
2023/09/17 13:46:13;;;;;;;;;7.00;7.00;;;;;;;;5055001;28;45801;-76
2023/09/17 13:48:39;;;;;;;;;7.50;7.50;;;;;;;;5053038;28;45440;-74
2023/09/17 13:51:04;;;;;;;;;7.00;6.75;;;;;;;;5042770;28;45599;-74
2023/09/17 13:53:29;;;;;;;;;5.25;5.25;;;;;;;;5040975;28;45137;-74
2023/09/17 13:55:55;;;;;;;;;7.50;7.50;;;;;;;;5038961;28;47407;-73
2023/09/17 13:58:20;;;;;;;;;7.00;5.75;;;;;;;;5038085;28;45345;-74
2023/09/17 14:00:46;;;;;;;;;6.50;6.50;;;;;;;;5040321;28;45314;-74
2023/09/17 14:03:14;;;;;;;;;5.00;5.00;;;;;;;;5037047;28;45447;-74
2023/09/17 14:05:43;;;;;;;;;10.25;9.75;;;;;;;;5040551;28;45441;-74
2023/09/17 14:08:08;;;;;;;;;8.25;8.25;;;;;;;;5034398;28;45726;-73
2023/09/17 14:10:34;;;;;;;;;10.25;9.75;;;;;;;;5032349;28;45518;-74
2023/09/17 14:13:03;;;;;;;;;9.67;9.67;;;;;;;;5037117;28;45756;-74
2023/09/17 14:15:29;;;;;;;;;10.00;10.00;;;;;;;;5053929;28;47312;-74
2023/09/17 14:17:54;;;;;;;;;11.00;11.00;;;;;;;;5033392;28;45679;-74
2023/09/17 14:20:20;;;;;;;;;7.67;7.67;;;;;;;;5035818;28;45742;-74
2023/09/17 14:22:45;;;;;;;;;7.00;7.00;;;;;;;;5055583;28;46081;-74
2023/09/17 14:25:10;;;;;;;;;6.75;6.75;;;;;;;;5041051;28;46011;-76
2023/09/17 14:27:36;;;;;;;;;8.75;7.75;;;;;;;;5025709;28;45737;-74
2023/09/17 14:30:04;;;;;;;;;11.67;11.67;;;;;;;;5029799;28;45236;-74
2023/09/17 14:32:29;;;;;;;;;16.33;15.67;;;;;;;;5035028;28;45350;-74
2023/09/17 14:34:55;;;;;;;;;18.67;18.00;;;;;;;;5039897;28;45515;-74